Slater, IA (50244)

8:29 AM CST on January 26, 2015 (GMT -0600)
Benton Street | Change Station
CLOSE
Current Station
Personal Weather Station
Location: Slater, IA
Elevation: 1001 ft
Nearby Weather Stations

Elev 1001 ft 41.88 °N, 93.68 °W | Updated 4 seconds ago

Overcast
Overcast
32.0 °F
Feels Like 28 °F
N
4.0
Wind Variable Wind from West
Gusts 10.0 mph

Today
High -- | Low -- °F
--% Chance of Precip.
Yesterday
High -- | Low -- °F
Precip. -- in
7:32 AM 5:22 PM
Waxing Crescent, 43% visible
Pressure 29.84 in
Visibility 10.0 miles
Clouds Few 9000 ft
Overcast 11000 ft
Windchill 28 °F
Dew Point 32 °F
Humidity 100%
Rainfall 0.00 in
Snow Depth Not available.
UV 0 out of 12
Pollen .10 out of 12
Air Quality Not available.
Flu Activity Not available.
METAR KAMW 261353Z AUTO 21012KT 10SM FEW090 OVC110 00/M02 A2981 RMK AO2 SLP103 T00001022

More Conditions Fewer Conditions

Pressure 29.84 in
Visibility 10.0 miles
Clouds Few 9000 ft
Overcast 11000 ft
Windchill 28 °F
Dew Point 32 °F
Humidity 100%
Rainfall 0.00 in
Snow Depth Not available.
UV 0 out of 12
Pollen .10 out of 12
Air Quality Not available.
Flu Activity Not available.
METAR KAMW 261353Z AUTO 21012KT 10SM FEW090 OVC110 00/M02 A2981 RMK AO2 SLP103 T00001022

More Conditions Fewer Conditions

10-Day Weather Forecast

Almanac

Astronomy

Jan. 26, 2015 Rise Set
Actual Time
Civil Twilight
Nautical Twilight
Astronomical Twilight
Moon
Length of Visible Light
Length of Day
Tomorrow will be .
, % of the Moon is Illuminated

Today's Extremes

State Highs State Lows

Community

WunderPhotos

Upload Photos

1,790,219 photos uploaded!

WunderBlogs® & News

Nearby

Air Quality

  Air Quality AQ Index Pollutant
Not available.

Snow Depth

Station Depth Elevation

Earthquake Activity

City Distance Mag. Time & Date
Minimum magnitude displayed is 2.5.

Coastal Water Temperatures

Place Temperature

Nearby Weather Stations